Flight Track Log - Related Links

Times and Time Zones

All times are in EDT time to prevent confusion due to time zone crossing. See the AAL1071 flight status page for this flight to view local times or setup timezone preferences in your user account.

Time Position Orientation Groundspeed Altitude Reporting Facility
EDT Latitude Longitude Course Direction KTS MPH feet Rate Location/Type
Wed 08:13:59 AM 39.8762 -75.2126 85° East 197 227 1,000  Level FlightAware ADS-B
Wed 08:14:04 AM 39.8759 -75.2055 93° East 199 229 1,400 4,000 Climbing FlightAware ADS-B
Wed 08:14:08 AM 39.8751 -75.1998 100° East 201 231 1,600 3,000 Climbing FlightAware ADS-B
Wed 08:14:12 AM 39.8741 -75.1959 108° East 203 234 1,800 3,750 Climbing FlightAware ADS-B
Wed 08:14:16 AM 39.8724 -75.1911 115° Southeast 205 236 2,100 3,600 Climbing FlightAware ADS-B
Wed 08:14:22 AM 39.8691 -75.1841 122° Southeast 211 243 2,400 2,250 Climbing FlightAware ADS-B
Wed 08:14:40 AM 39.8594 -75.1637 122° Southeast 235 270 3,000 2,143 Climbing FlightAware ADS-B
Wed 08:14:50 AM 39.8535 -75.1509 121° Southeast 245 282 3,400 3,111 Climbing FlightAware ADS-B
Wed 08:15:07 AM 39.8437 -75.1285 120° Southeast 252 290 4,400 3,273 Climbing FlightAware ADS-B
Wed 08:15:12 AM 39.8403 -75.1224 126° Southeast 255 293 4,600 2,727 Climbing FlightAware ADS-B
Wed 08:15:18 AM 39.8352 -75.1161 137° Southeast 261 300 4,900 2,667 Climbing FlightAware ADS-B
Wed 08:15:21 AM 39.8322 -75.1134 145° Southeast 263 303 5,000 3,000 Climbing FlightAware ADS-B
Wed 08:15:24 AM 39.8286 -75.1108 151° Southeast 264 304 5,200 3,600 Climbing FlightAware ADS-B
Wed 08:15:31 AM 39.8216 -75.1076 161° South 265 305 5,600 3,818 Climbing FlightAware ADS-B
Wed 08:15:35 AM 39.8163 -75.1063 169° South 264 304 5,900 4,200 Climbing FlightAware ADS-B
Wed 08:15:41 AM 39.8094 -75.1059 177° South 262 302 6,300 3,667 Climbing FlightAware ADS-B
Wed 08:15:53 AM 39.7946 -75.1103 193° South 258 297 7,000 3,667 Climbing FlightAware ADS-B
Wed 08:15:59 AM 39.7883 -75.1146 208° Southwest 256 295 7,400 3,600 Climbing FlightAware ADS-B
Wed 08:16:23 AM 39.7639 -75.1332 210° Southwest 256 295 8,800 3,450 Climbing FlightAware ADS-B
Wed 08:16:39 AM 39.7473 -75.1453 209° Southwest 254 292 9,700 2,170 Climbing FlightAware ADS-B
Wed 08:17:10 AM 39.7139 -75.1705 210° Southwest 293 337 10,500 1,645 Climbing FlightAware ADS-B
Wed 08:17:41 AM 39.6757 -75.1986 210° Southwest 309 356 11,400 1,355 Climbing FlightAware ADS-B
Wed 08:18:12 AM 39.6366 -75.2277 210° Southwest 320 368 11,900 492 Climbing FlightAware ADS-B
Wed 08:18:42 AM 39.5979 -75.2568 210° Southwest 323 372 11,900 667 Level FlightAware ADS-B
Wed 08:19:15 AM 39.5549 -75.2889 210° Southwest 327 376 12,600 2,100 Climbing FlightAware ADS-B
Wed 08:19:42 AM 39.5191 -75.3148 209° Southwest 331 381 14,000 3,220 Climbing FlightAware ADS-B
Wed 08:19:56 AM 39.4984 -75.3253 201° Southwest 336 387 14,800 2,897 Climbing FlightAware ADS-B
Wed 08:20:11 AM 39.4756 -75.3323 193° South 345 397 15,400 1,867 Climbing FlightAware ADS-B
Wed 08:20:41 AM 39.4277 -75.3410 188° South 346 398 16,200 1,452 Climbing FlightAware ADS-B
Wed 08:21:13 AM 39.3746 -75.3505 188° South 362 417 16,900 646 Climbing FlightAware ADS-B
Wed 08:21:46 AM 39.3197 -75.3603 188° South 361 415 16,900 92 Level FlightAware ADS-B
Wed 08:22:18 AM 39.2676 -75.3696 188° South 360 414 17,000 1,258 Climbing FlightAware ADS-B
Wed 08:22:48 AM 39.2176 -75.3785 188° South 359 413 18,200 2,667 Climbing FlightAware ADS-B
Wed 08:23:21 AM 39.1640 -75.3873 187° South 359 413 19,800 2,381 Climbing FlightAware ADS-B
Wed 08:23:51 AM 39.1129 -75.3949 187° South 372 428 20,700 2,032 Climbing FlightAware ADS-B
Wed 08:24:23 AM 39.0566 -75.4034 187° South 382 440 21,900 2,476 Climbing FlightAware ADS-B
Wed 08:24:54 AM 39.0023 -75.4116 187° South 382 440 23,300 2,571 Climbing FlightAware ADS-B
Wed 08:25:26 AM 38.9471 -75.4200 187° South 379 436 24,600 2,286 Climbing FlightAware ADS-B
Wed 08:25:57 AM 38.8930 -75.4283 187° South 381 438 25,700 2,095 Climbing FlightAware ADS-B
Wed 08:26:29 AM 38.8375 -75.4367 187° South 384 442 26,800 2,273 Climbing FlightAware ADS-B
Wed 08:27:03 AM 38.7778 -75.4456 187° South 375 432 28,200 2,000 Climbing FlightAware ADS-B
Wed 08:27:38 AM 38.7180 -75.4547 187° South 375 432 29,100 1,147 Climbing FlightAware ADS-B
Wed 08:28:11 AM 38.6592 -75.4638 187° South 394 453 29,500 1,071 Climbing FlightAware ADS-B
Wed 08:29:02 AM 38.5649 -75.4777 187° South 398 458 30,600 1,390 Climbing FlightAware ADS-B
Wed 08:29:33 AM 38.5075 -75.4863 187° South 404 465 31,400 1,869 Climbing FlightAware ADS-B
Wed 08:30:03 AM 38.4509 -75.4947 187° South 403 464 32,500 1,700 Climbing FlightAware ADS-B
Wed 08:30:33 AM 38.3961 -75.5028 187° South 398 458 33,100 1,000 Climbing FlightAware ADS-B
Wed 08:31:09 AM 38.3350 -75.5190 192° South 392 451 33,600 643 Climbing FlightAware ADS-B
Wed 08:31:57 AM 38.2610 -75.5630 205° Southwest 381 438 34,000 258 Climbing FlightAware ADS-B
Wed 08:32:42 AM 38.1920 -75.6060 206° Southwest 381 438 34,000  Level FlightAware ADS-B
Wed 08:33:21 AM 38.1230 -75.6490 206° Southwest 382 440 34,000  Level FlightAware ADS-B
Wed 08:33:42 AM 38.0858 -75.6725 206° Southwest 390 449 34,000 222 Level FlightAware ADS-B
Wed 08:34:15 AM 38.0340 -75.7050 206° Southwest 395 455 34,200 545 Climbing FlightAware ADS-B
Wed 08:34:59 AM 37.9670 -75.7460 206° Southwest 401 461 34,700 929 Climbing FlightAware ADS-B
Wed 08:35:39 AM 37.9000 -75.7880 206° Southwest 394 453 35,500 813 Climbing FlightAware ADS-B
Wed 08:36:35 AM 37.8010 -75.8410 203° Southwest 399 459 36,000 333 Climbing FlightAware ADS-B
Wed 08:37:09 AM 37.7376 -75.8744 203° Southwest 399 459 36,000  Level FlightAware ADS-B
Wed 08:37:46 AM 37.6739 -75.9075 202° Southwest 398 458 36,000  Level FlightAware ADS-B
Wed 08:38:29 AM 37.6160 -75.9370 202° Southwest 398 458 36,000  Level FlightAware ADS-B
Wed 08:39:11 AM 37.5340 -75.9800 203° Southwest 397 457 36,000  Level FlightAware ADS-B
Wed 08:40:21 AM 37.4140 -76.0420 202° Southwest 396 456 36,000  Level FlightAware ADS-B
Wed 08:40:53 AM 37.3570 -76.0713 202° Southwest 397 457 36,000  Level FlightAware ADS-B
Wed 08:41:24 AM 37.3042 -76.0986 202° Southwest 397 457 36,000  Level FlightAware ADS-B
Wed 08:41:56 AM 37.2492 -76.1268 202° Southwest 398 458 36,000  Level FlightAware ADS-B
Wed 08:42:27 AM 37.1978 -76.1532 202° Southwest 400 460 36,000  Level FlightAware ADS-B
Wed 08:42:59 AM 37.1417 -76.1819 202° Southwest 401 461 36,000  Level FlightAware ADS-B
Wed 08:43:36 AM 37.0779 -76.2146 202° Southwest 403 464 36,000  Level FlightAware ADS-B
Wed 08:44:25 AM 36.9925 -76.2581 202° Southwest 405 466 36,000  Level FlightAware ADS-B
Wed 08:45:38 AM 36.8790 -76.3160 202° Southwest 408 470 36,000  Level FlightAware ADS-B
Wed 08:47:01 AM 36.8570 -76.3270 202° Southwest 409 471 36,000  Level FlightAware ADS-B
Wed 08:47:49 AM 36.6370 -76.4390 202° Southwest 411 473 36,000  Level FlightAware ADS-B
Wed 08:48:24 AM 36.5830 -76.4660 202° Southwest 410 472 36,000  Level FlightAware ADS-B
Wed 08:49:14 AM 36.4890 -76.5130 202° Southwest 410 472 36,000  Level FlightAware ADS-B
Wed 08:49:57 AM 36.4100 -76.5530 202° Southwest 410 472 36,000  Level FlightAware ADS-B
Wed 08:50:32 AM 36.3560 -76.5790 201° Southwest 410 472 36,000  Level FlightAware ADS-B
Wed 08:51:15 AM 36.2920 -76.6120 203° Southwest 410 472 36,000  Level FlightAware ADS-B
Wed 08:51:59 AM 36.2000 -76.6570 202° Southwest 409 471 36,000  Level FlightAware ADS-B
Wed 08:52:41 AM 36.1290 -76.6930 202° Southwest 410 472 36,000  Level FlightAware ADS-B
Wed 08:53:18 AM 36.0620 -76.7260 202° Southwest 409 471 36,000  Level FlightAware ADS-B
Wed 08:54:06 AM 35.9790 -76.7680 202° Southwest 411 473 36,000  Level FlightAware ADS-B
Wed 08:54:43 AM 35.9270 -76.7940 202° Southwest 410 472 36,000  Level FlightAware ADS-B
Wed 08:55:35 AM 35.8490 -76.8320 202° Southwest 410 472 36,000  Level FlightAware ADS-B
Wed 08:56:12 AM 35.7940 -76.8600 202° Southwest 410 472 36,000  Level FlightAware ADS-B
Wed 08:56:48 AM 35.7400 -76.8870 202° Southwest 410 472 36,000  Level FlightAware ADS-B
Wed 08:57:36 AM 35.6680 -76.9220 202° Southwest 410 472 36,000  Level FlightAware ADS-B
Wed 08:58:12 AM 35.6150 -76.9490 202° Southwest 410 472 36,000  Level FlightAware ADS-B
Wed 08:59:01 AM 35.5410 -76.9860 202° Southwest 410 472 36,000  Level FlightAware ADS-B
Wed 08:59:47 AM 35.4730 -77.0200 202° Southwest 410 472 36,000  Level FlightAware ADS-B
Wed 09:00:21 AM 35.4220 -77.0450 202° Southwest 410 472 36,000  Level FlightAware ADS-B
Wed 09:01:10 AM 35.3480 -77.0810 202° Southwest 410 472 36,000  Level FlightAware ADS-B
Wed 09:01:45 AM 35.2960 -77.1070 202° Southwest 410 472 36,000  Level FlightAware ADS-B
Wed 09:02:34 AM 35.2230 -77.1430 202° Southwest 410 472 36,000  Level FlightAware ADS-B
Wed 09:03:13 AM 35.1650 -77.1720 202° Southwest 410 472 36,000  Level FlightAware ADS-B
Wed 09:04:28 AM 34.8253 -77.1406 202° Southwest 435 501 36,000  Level Washington Center
Wed 09:05:28 AM 34.7042 -77.1533 185° South 435 501 36,000  Level Washington Center
Wed 09:06:28 AM 34.5828 -77.1686 186° South 440 506 36,000  Level Washington Center
Wed 09:12:15 AM 33.8720 -77.2910 186° South 434 499 36,000  Level FlightAware ADS-B
Wed 09:13:40 AM 33.7040 -77.3250 190° South 434 499 36,000  Level FlightAware ADS-B
Wed 09:14:10 AM 33.6470 -77.3340 187° South 436 502 36,000  Level FlightAware ADS-B
Wed 09:15:00 AM 33.5620 -77.3470 187° South 436 502 36,000  Level FlightAware ADS-B
Wed 09:15:43 AM 33.4890 -77.3570 187° South 436 502 36,000  Level FlightAware ADS-B
Wed 09:16:32 AM 33.4050 -77.3700 187° South 436 502 36,000  Level FlightAware ADS-B
Wed 09:17:31 AM 33.3050 -77.3840 187° South 436 502 36,000  Level FlightAware ADS-B
Wed 09:18:07 AM 33.2440 -77.3930 187° South 436 502 36,000  Level FlightAware ADS-B
Wed 09:18:31 AM 33.2030 -77.3990 187° South 436 502 36,000  Level FlightAware ADS-B
Wed 09:19:19 AM 33.1210 -77.4110 187° South 436 502 36,000  Level FlightAware ADS-B
Wed 09:19:56 AM 33.0580 -77.4210 188° South 436 502 36,000  Level FlightAware ADS-B
Wed 09:20:39 AM 32.9850 -77.4310 187° South 436 502 36,000  Level FlightAware ADS-B
Wed 09:21:25 AM 32.9070 -77.4430 187° South 436 502 36,000  Level FlightAware ADS-B
Wed 09:22:15 AM 32.8220 -77.4550 187° South 436 502 36,000  Level FlightAware ADS-B
Wed 09:23:07 AM 32.7330 -77.4680 187° South 436 502 36,000  Level FlightAware ADS-B
Wed 09:23:44 AM 32.6700 -77.4770 187° South 436 502 36,000  Level FlightAware ADS-B
Wed 09:24:36 AM 32.4408 -77.7189 187° South 454 522 36,000  Level Jacksonville Center
Wed 09:25:36 AM 32.3306 -77.7792 205° Southwest 454 522 36,000 -50 Level Jacksonville Center
Wed 09:26:36 AM 32.2181 -77.8419 205° Southwest 454 522 35,900  Descending Jacksonville Center
Wed 09:27:36 AM 32.1097 -77.8944 202° Southwest 449 517 36,000 50 Climbing Jacksonville Center
Wed 09:28:36 AM 31.9997 -77.9642 208° Southwest 449 517 36,000 -50 Level Jacksonville Center
Wed 09:29:36 AM 31.8869 -78.0167 202° Southwest 444 511 35,900  Descending Jacksonville Center
Wed 09:30:36 AM 31.7764 -78.0761 205° Southwest 444 511 36,000 50 Climbing Jacksonville Center
Wed 09:31:36 AM 31.6664 -78.1428 207° Southwest 444 511 36,000  Level Jacksonville Center
Wed 09:32:36 AM 31.5556 -78.1972 203° Southwest 439 505 36,000  Level Jacksonville Center
Wed 09:33:36 AM 31.4453 -78.2636 207° Southwest 439 505 36,000  Level Jacksonville Center
Wed 09:34:36 AM 31.3264 -78.3256 204° Southwest 430 495 36,000  Level Jacksonville Center
Wed 09:35:36 AM 31.2100 -78.3919 206° Southwest 453 521 36,000 -50 Level Jacksonville Center
Wed 09:36:36 AM 31.1011 -78.4481 204° Southwest 453 521 35,900  Descending Jacksonville Center
Wed 09:37:36 AM 30.9886 -78.5092 205° Southwest 448 516 36,000 50 Climbing Jacksonville Center
Wed 09:38:36 AM 30.8881 -78.5622 204° Southwest 448 516 36,000  Level Jacksonville Center
Wed 09:39:36 AM 30.7733 -78.6231 204° Southwest 447 514 36,000  Level Jacksonville Center
Wed 09:40:36 AM 30.6625 -78.6811 204° Southwest 447 514 36,000  Level Jacksonville Center
Wed 09:41:36 AM 30.5444 -78.7153 194° South 447 514 36,000  Level Jacksonville Center
Wed 09:42:18 AM 30.4514 -78.7297 188° South 443 510 36,000  Level Miami Center
Wed 09:43:18 AM 30.3325 -78.7492 188° South 422 486 36,000  Level Miami Center
Wed 09:44:18 AM 30.2114 -78.7689 188° South 433 498 36,000  Level Miami Center
Wed 09:45:18 AM 30.0900 -78.7906 189° South 440 506 36,000  Level Miami Center
Wed 09:46:18 AM 29.9833 -78.8150 191° South 440 506 36,000  Level Miami Center
Wed 09:47:18 AM 29.8581 -78.8294 186° South 446 513 36,000  Level Miami Center
Wed 09:48:18 AM 29.7347 -78.8536 190° South 453 521 36,000  Level Miami Center
Wed 09:49:18 AM 29.6156 -78.8706 187° South 446 513 36,000  Level Miami Center
Wed 09:50:18 AM 29.4883 -78.8847 186° South 446 513 36,000  Level Miami Center
Wed 09:55:56 AM 28.7710 -78.9780 186° South 453 521 36,000  Level FlightAware ADS-B
Wed 09:56:36 AM 28.6880 -78.9890 187° South 453 521 36,000  Level FlightAware ADS-B
Wed 09:57:19 AM 28.5990 -79.0010 187° South 455 524 36,000 -247 Level FlightAware ADS-B
Wed 09:58:13 AM 28.4990 -79.0140 187° South 456 525 35,600 -500 Descending FlightAware ADS-B
Wed 09:58:55 AM 28.4080 -79.0260 187° South 453 521 35,200 -1,129 Descending FlightAware ADS-B
Wed 09:59:54 AM 28.2750 -79.0560 191° South 447 514 33,700 -1,271 Descending FlightAware ADS-B
Wed 10:00:53 AM 28.1580 -79.0920 195° South 458 527 32,700 -1,080 Descending FlightAware ADS-B
Wed 10:01:34 AM 28.0720 -79.1180 195° South 450 518 31,900 -651 Descending FlightAware ADS-B
Wed 10:02:16 AM 28.0080 -79.1380 195° South 450 518 31,800 -1,050 Descending FlightAware ADS-B
Wed 10:02:54 AM 27.9090 -79.1680 195° South 452 520 30,500 -1,518 Descending FlightAware ADS-B
Wed 10:03:39 AM 27.8170 -79.1960 195° South 453 521 29,700 -1,059 Descending FlightAware ADS-B
Wed 10:04:19 AM 27.7320 -79.2220 195° South 463 533 29,000 -1,029 Descending FlightAware ADS-B
Wed 10:04:49 AM 27.6690 -79.2410 195° South 452 520 28,500 -1,068 Descending FlightAware ADS-B
Wed 10:05:32 AM 27.5780 -79.2690 195° South 461 531 27,700 -1,098 Descending FlightAware ADS-B
Wed 10:06:11 AM 27.4970 -79.2940 195° South 464 534 27,000 -1,047 Descending FlightAware ADS-B
Wed 10:06:58 AM 27.4020 -79.3240 196° South 463 533 26,200 -1,059 Descending FlightAware ADS-B
Wed 10:07:36 AM 27.3250 -79.3550 200° South 465 535 25,500 -1,169 Descending FlightAware ADS-B
Wed 10:08:15 AM 27.2450 -79.3890 201° Southwest 459 528 24,700 -1,098 Descending FlightAware ADS-B
Wed 10:08:58 AM 27.1660 -79.4250 202° Southwest 432 497 24,000 -519 Descending FlightAware ADS-B
Wed 10:09:36 AM 27.0920 -79.4580 202° Southwest 434 499 24,000 -727 Level FlightAware ADS-B
Wed 10:10:37 AM 26.9760 -79.5090 201° Southwest 433 498 22,800 -1,301 Descending FlightAware ADS-B
Wed 10:10:59 AM 26.9360 -79.5260 201° Southwest 424 488 22,200 -1,078 Descending FlightAware ADS-B
Wed 10:12:45 AM 26.8240 -79.5750 201° Southwest 400 460 20,500 -1,636 Descending FlightAware ADS-B
Wed 10:13:22 AM 26.6920 -79.6330 201° Southwest 372 428 18,300 -2,550 Descending FlightAware ADS-B
Wed 10:14:05 AM 26.6270 -79.6620 202° Southwest 367 422 17,100 -1,586 Descending FlightAware ADS-B
Wed 10:14:49 AM 26.5570 -79.6920 201° Southwest 361 415 16,000 -911 Descending FlightAware ADS-B
Wed 10:15:24 AM 26.5020 -79.7160 201° Southwest 351 404 15,900 -70 Descending FlightAware ADS-B
Wed 10:16:15 AM 26.4390 -79.7800 222° Southwest 354 407 15,900 -255 Level FlightAware ADS-B
Wed 10:16:58 AM 26.4010 -79.8460 237° Southwest 356 410 15,500 -714 Descending FlightAware ADS-B
Wed 10:17:39 AM 26.3580 -79.9040 230° Southwest 352 405 14,900 -1,333 Descending FlightAware ADS-B
Wed 10:18:19 AM 26.3110 -79.9530 223° Southwest 350 403 13,700 -1,778 Descending FlightAware ADS-B
Wed 10:19:00 AM 26.2630 -80.0020 222° Southwest 343 395 12,500 -1,862 Descending FlightAware ADS-B
Wed 10:19:46 AM 26.1970 -80.0290 200° South 338 389 11,000 -1,636 Descending FlightAware ADS-B
Wed 10:20:28 AM 26.1340 -80.0470 194° South 321 369 10,100 -882 Descending FlightAware ADS-B
Wed 10:20:54 AM 26.0970 -80.0580 195° South 299 344 10,000 -667 Descending FlightAware ADS-B
Wed 10:21:22 AM 26.0600 -80.0680 194° South 287 330 9,500 -982 Descending FlightAware ADS-B
Wed 10:21:49 AM 26.0250 -80.0780 194° South 279 321 9,100 -632 Descending FlightAware ADS-B
Wed 10:22:19 AM 25.9890 -80.0880 194° South 260 299 8,900 -429 Descending FlightAware ADS-B
Wed 10:22:45 AM 25.9620 -80.1030 207° Southwest 247 284 8,700 -571 Descending FlightAware ADS-B
Wed 10:23:01 AM 25.9500 -80.1180 228° Southwest 242 278 8,500 -977 Descending FlightAware ADS-B
Wed 10:23:28 AM 25.9350 -80.1450 238° Southwest 239 275 8,000 -632 Descending FlightAware ADS-B
Wed 10:23:58 AM 25.9180 -80.1770 239° Southwest 240 276 7,900 -111 Descending FlightAware ADS-B
Wed 10:24:22 AM 25.9080 -80.2050 248° West 240 276 7,900  Level FlightAware ADS-B
Wed 10:24:38 AM 25.9020 -80.2240 251° West 241 277 7,900 -533 Level FlightAware ADS-B
Wed 10:25:07 AM 25.8960 -80.2590 259° West 246 283 7,500 -873 Descending FlightAware ADS-B
Wed 10:25:33 AM 25.9010 -80.2900 280° West 245 282 7,100 -982 Descending FlightAware ADS-B
Wed 10:26:02 AM 25.9140 -80.3220 294° West 242 278 6,600 -1,179 Descending FlightAware ADS-B
Wed 10:26:29 AM 25.9270 -80.3530 295° West 237 273 6,000 -1,154 Descending FlightAware ADS-B
Wed 10:26:54 AM 25.9380 -80.3800 294° West 230 265 5,600 -1,350 Descending FlightAware ADS-B
Wed 10:27:09 AM 25.9410 -80.3980 281° West 233 268 5,100 -1,600 Descending FlightAware ADS-B
Wed 10:27:39 AM 25.9390 -80.4340 266° West 231 266 4,400 -1,400 Descending FlightAware ADS-B
Wed 10:28:09 AM 25.9310 -80.4670 255° West 216 249 3,700 -1,500 Descending FlightAware ADS-B
Wed 10:28:19 AM 25.9230 -80.4740 218° Southwest 213 245 3,400 -1,800 Descending FlightAware ADS-B
Wed 10:28:29 AM 25.9130 -80.4770 195° South 212 244 3,100 -882 Descending FlightAware ADS-B
Wed 10:28:53 AM 25.8910 -80.4650 154° Southeast 198 228 2,900 -375 Descending FlightAware ADS-B
Wed 10:29:17 AM 25.8780 -80.4500 134° Southeast 188 216 2,800 -638 Descending FlightAware ADS-B
Wed 10:29:40 AM 25.8660 -80.4310 125° Southeast 180 207 2,400 -1,043 Descending FlightAware ADS-B
Wed 10:30:03 AM 25.8570 -80.4130 119° Southeast 167 192 2,000 -894 Descending FlightAware ADS-B
Wed 10:30:27 AM 25.8470 -80.3960 123° Southeast 153 176 1,700 -679 Descending FlightAware ADS-B
Wed 10:30:56 AM 25.8380 -80.3770 118° Southeast 146 168 1,400 -800 Descending FlightAware ADS-B
Wed 10:31:12 AM 25.8320 -80.3670 124° Southeast 143 165 1,100 -818 Descending FlightAware ADS-B
Wed 10:31:40 AM 25.8230 -80.3480 118° Southeast 141 162 800 -737 Descending FlightAware ADS-B
Wed 10:32:09 AM 25.8130 -80.3300 122° Southeast 142 163 400 -764 Descending FlightAware ADS-B
Wed 10:32:35 AM 25.8050 -80.3130 118° Southeast 143 165 100 -692 Descending FlightAware ADS-B
Wed 10:33:02 AM 25.7960 -80.2960 120° Southeast 140 161 -222 Descending FlightAware ADS-B
Wed 10:33:14 AM 25.7930 -80.2900 119° Southeast 84 97  Level FlightAware ADS-B

Login

Don't have an account? Register now (free) for customized features, flight alerts, and more!